Meteosat more information blitzortung!


aviso para Nieve / Hielo  rain snow radar


Website of another weatherstation

Website of another weatherstation



Nieve/Hielo Desde: 22-01-2019 16:00 Hasta: 23:59 Advertencias para: Nieve/Hielo Nivel: Amarillo info button

Pagina Historial Weather Underground texto

Diario Resumen January 22, 2019 Unidades:  Métrico    impérial   Tanto
« Anterior Dia
Siguiente Dia »
Diario Semana Mensual Anual Personalizada
  Actual: Alto: Baja: Media:
Temperatura: -14.4 °C -17.8 °C -20 °C -16.3 °C
Punto de rocío: -16.3 °C -17.8 °C -21.3 °C -17.9 °C
Humedad: 79 % Humidity % 71 % 81 %
Velocidad del Viento: 15 km/h 0 km/h 0 km/h 9.8 km/h
Ráfagas de viento: 10.3 km/h 0 km/h - -
Viento:NW - - South
Pression baro: 33958.2 hPa 0 hPa 33924.3 hPa -
Précipitaciones: 12.7 mm      
Historical Graphs
 
 
Datos de tabla para January 22, 2019
Tiempo Temperatura Punto de rocío Pression baro Viento Velocidad del Viento Ráfagas de viento Humedad Las precipitaciones Rate ( Hora )
-17.8 °C -17.8 °C 0 hPa Calm     Humidity % 0 mm
05:41 -18.9 °C -20.4 °C 34229.1 hPa NW 3.1 km/h 3.1 km/h 82 % 0 mm
05:46 -19.4 °C -21 °C 34229.1 hPa NE 6 km/h 3.9 km/h 81 % 0 mm
05:51 -19.4 °C -20.9 °C 34229.1 hPa NE 3.1 km/h 2.3 km/h 82 % 0 mm
05:56 -19.4 °C -20.9 °C 34229.1 hPa ENE 5 km/h 2.3 km/h 82 % 0 mm
06:01 -19.4 °C -20.8 °C 34229.1 hPa NNE 6 km/h 0.5 km/h 83 % 0 mm
06:06 -19.4 °C -20.7 °C 34229.1 hPa SW 3.1 km/h   84 % 0 mm
06:11 -19.4 °C -20.8 °C 34229.1 hPa NNW 6 km/h 1.8 km/h 83 % 0 mm
06:16 -19.4 °C -20.7 °C 34229.1 hPa East 9 km/h 6.3 km/h 85 % 0 mm
06:21 -19.4 °C -20.4 °C 34195.2 hPa ENE 6 km/h 3.1 km/h 87 % 0 mm
06:26 -19.4 °C -20.4 °C 34195.2 hPa NNE 6 km/h 3.1 km/h 88 % 0 mm
06:31 -19.4 °C -20.4 °C 34195.2 hPa SE 3.1 km/h   88 % 0 mm
06:36 -19.4 °C -20.4 °C 34229.1 hPa Calm     88 % 0 mm
06:41 -19.4 °C -20.4 °C 34195.2 hPa NE 6.4 km/h 2.9 km/h 87 % 0 mm
06:46 -18.9 °C -20.1 °C 34229.1 hPa Calm     86 % 0 mm
06:51 -19.4 °C -20.6 °C 34195.2 hPa NE 6 km/h 3.1 km/h 86 % 0 mm
06:56 -19.4 °C -20.6 °C 34195.2 hPa NE 3.1 km/h 3.1 km/h 86 % 0 mm
07:01 -19.4 °C -20.6 °C 34195.2 hPa NE 6 km/h 3.9 km/h 86 % 0 mm
07:06 -19.4 °C -20.6 °C 34195.2 hPa NE 3.1 km/h 0.3 km/h 86 % 0 mm
07:11 -19.4 °C -20.7 °C 34195.2 hPa NNW 6 km/h 2.9 km/h 85 % 0 mm
07:16 -19.4 °C -20.6 °C 34195.2 hPa NE 9 km/h 5.1 km/h 86 % 0 mm
07:21 -19.4 °C -20.4 °C 34195.2 hPa NNE 3.1 km/h 1.8 km/h 87 % 0 mm
07:26 -19.4 °C -20.6 °C 34195.2 hPa Calm     86 % 0 mm
07:31 -19.4 °C -20.6 °C 34195.2 hPa Calm     86 % 0 mm
07:36 -19.4 °C -20.7 °C 34195.2 hPa Calm     85 % 0 mm
07:41 -19.4 °C -20.7 °C 34229.1 hPa Calm     84 % 0 mm
07:46 -19.4 °C -20.8 °C 34195.2 hPa Calm     83 % 0 mm
07:51 -19.4 °C -20.8 °C 34195.2 hPa NE 3.1 km/h 1.6 km/h 83 % 0 mm
07:56 -20 °C -21.3 °C 34195.2 hPa Calm     83 % 0 mm
08:01 -19.4 °C -20.7 °C 34229.1 hPa Calm     84 % 0 mm
08:06 -19.4 °C -20.7 °C 34195.2 hPa ENE 5 km/h 3.7 km/h 84 % 0 mm
08:11 -19.4 °C -20.7 °C 34195.2 hPa NE 9 km/h 4.2 km/h 85 % 0 mm
08:16 -19.4 °C -20.4 °C 34195.2 hPa NE 6 km/h 2.6 km/h 87 % 0 mm
08:21 -19.4 °C -20.4 °C 34195.2 hPa NE 6 km/h 3.7 km/h 87 % 0 mm
08:26 -19.4 °C -20.4 °C 34229.1 hPa South 3.1 km/h 0.5 km/h 87 % 0 mm
08:31 -19.4 °C -20.4 °C 34229.1 hPa NE 6.4 km/h 3.1 km/h 88 % 0 mm
08:36 -19.4 °C -20.4 °C 34195.2 hPa NE 9 km/h 3.7 km/h 88 % 0 mm
08:41 -19.4 °C -20.4 °C 34195.2 hPa NE 9 km/h 5.5 km/h 88 % 0 mm
08:46 -19.4 °C -20.4 °C 34195.2 hPa ENE 9 km/h 3.7 km/h 88 % 0 mm
08:51 -19.4 °C -20.4 °C 34195.2 hPa NNW 9 km/h 4.2 km/h 88 % 0 mm
08:56 -19.4 °C -20.4 °C 34195.2 hPa ENE 9 km/h 5.6 km/h 88 % 0 mm
09:01 -19.4 °C -20.4 °C 34195.2 hPa NE 6 km/h 3.7 km/h 87 % 0 mm
09:06 -19.4 °C -20.4 °C 34195.2 hPa NE 6.4 km/h 4.7 km/h 87 % 0 mm
09:11 -19.4 °C -20.4 °C 34195.2 hPa ENE 9 km/h 3.7 km/h 87 % 0 mm
09:16 -19.4 °C -20.4 °C 34195.2 hPa ENE 6.4 km/h 4.7 km/h 87 % 0 mm
09:21 -19.4 °C -20.4 °C 34195.2 hPa Calm     88 % 0 mm
09:26 -19.4 °C -20.4 °C 34195.2 hPa SSE 3.1 km/h 1.3 km/h 88 % 0 mm
09:31 -18.9 °C -19.8 °C 34195.2 hPa ENE 6 km/h 1.3 km/h 88 % 0 mm
09:36 -18.9 °C -19.8 °C 34195.2 hPa NNE 6 km/h 2.3 km/h 88 % 0 mm
09:41 -18.9 °C -19.8 °C 34195.2 hPa NE 11.9 km/h 6 km/h 88 % 0 mm
09:46 -18.9 °C -19.9 °C 34195.2 hPa East 3.1 km/h 0.5 km/h 87 % 0 mm
09:51 -18.9 °C -19.8 °C 34195.2 hPa West 6 km/h 2.1 km/h 88 % 0 mm
09:56 -18.9 °C -19.8 °C 34161.4 hPa NE 6 km/h 4.7 km/h 88 % 0 mm
10:01 -18.3 °C -19.3 °C 34161.4 hPa SSE 6 km/h 2.9 km/h 88 % 0 mm
10:06 -18.3 °C -19.3 °C 34161.4 hPa NE 6.4 km/h 5 km/h 88 % 0 mm
10:11 -18.3 °C -19.4 °C 34161.4 hPa ENE 11.9 km/h 6 km/h 87 % 0 mm
10:16 -18.3 °C -19.5 °C 34161.4 hPa NE 6 km/h 1.3 km/h 86 % 0 mm
10:21 -18.3 °C -19.5 °C 34161.4 hPa SE 5 km/h 2.6 km/h 86 % 0 mm
10:26 -18.3 °C -19.5 °C 34161.4 hPa ENE 9 km/h 3.4 km/h 86 % 0 mm
10:31 -18.3 °C -19.5 °C 34161.4 hPa NE 9 km/h 5.1 km/h 86 % 0 mm
10:36 -17.8 °C -18.9 °C 34161.4 hPa NE 9 km/h 6.3 km/h 86 % 0 mm
10:41 -17.8 °C -18.9 °C 34161.4 hPa NE 6 km/h 4.7 km/h 86 % 0 mm
10:46 -17.8 °C -19 °C 34127.5 hPa ENE 6 km/h 4.7 km/h 85 % 0 mm
10:51 -17.2 °C -18.6 °C 34127.5 hPa NE 6.4 km/h 5 km/h 84 % 0 mm
10:56 -17.2 °C -18.6 °C 34127.5 hPa NE 9 km/h 3.7 km/h 84 % 0 mm
11:01 -17.2 °C -18.6 °C 34127.5 hPa SSE 3.1 km/h 0.8 km/h 84 % 0 mm
11:06 -17.2 °C -18.7 °C 34127.5 hPa ENE 3.1 km/h 0.5 km/h 83 % 0 mm
11:11 -17.2 °C -18.7 °C 34161.4 hPa NE 3.1 km/h 2.6 km/h 82 % 0 mm
11:16 -17.2 °C -18.7 °C 34161.4 hPa NE 6.4 km/h 3.7 km/h 82 % 0 mm
11:21 -16.7 °C -18.2 °C 34161.4 hPa ENE 9 km/h 6.9 km/h 82 % 0 mm
11:26 -16.7 °C -18.4 °C 34195.2 hPa NE 11.9 km/h 6.9 km/h 80 % 0 mm
11:31 -16.7 °C -18.5 °C 34195.2 hPa WSW 3.1 km/h 2.3 km/h 79 % 0 mm
11:36 -16.7 °C -18.5 °C 34161.4 hPa North 9 km/h 5.6 km/h 79 % 0 mm
11:41 -16.7 °C -18.4 °C 34195.2 hPa ESE 6.4 km/h 2.6 km/h 80 % 0 mm
11:46 -16.1 °C -17.9 °C 34161.4 hPa SE 6 km/h 2.9 km/h 79 % 0 mm
11:51 -16.1 °C -17.9 °C 34195.2 hPa SE 6 km/h 4.3 km/h 79 % 0 mm
11:56 -16.1 °C -18 °C 34161.4 hPa NNW 6 km/h 2.6 km/h 78 % 0 mm
12:01 -16.1 °C -18 °C 34161.4 hPa SE 6 km/h 1 km/h 78 % 0 mm
12:06 -16.1 °C -18 °C 34161.4 hPa SW 6 km/h 3.7 km/h 78 % 0 mm
12:11 -16.1 °C -18.2 °C 34161.4 hPa SE 6 km/h   77 % 0 mm
12:16 -16.1 °C -18 °C 34161.4 hPa SW 6 km/h 1.3 km/h 78 % 0 mm
12:21 -16.1 °C -18 °C 34161.4 hPa SW 3.1 km/h 3.1 km/h 78 % 0 mm
12:26 -16.1 °C -18 °C 34161.4 hPa Calm     78 % 0 mm
12:31 -16.1 °C -18.2 °C 34161.4 hPa SW 6 km/h 1.8 km/h 77 % 0 mm
12:36 -16.1 °C -18 °C 34161.4 hPa WNW 6 km/h 0.3 km/h 78 % 0 mm
12:41 -15.6 °C -17.6 °C 34161.4 hPa SW 9 km/h 4.7 km/h 77 % 0 mm
12:46 -15.6 °C -17.6 °C 34161.4 hPa NNW 6 km/h 2.3 km/h 77 % 0 mm
12:51 -15.6 °C -17.6 °C 34127.5 hPa NNW 9 km/h 6.3 km/h 77 % 0 mm
12:56 -15.6 °C -17.6 °C 34127.5 hPa SW 3.1 km/h   77 % 0 mm
13:01 -15.6 °C -17.7 °C 34127.5 hPa NW 3.1 km/h 0.3 km/h 76 % 0 mm
13:06 -15.6 °C -17.7 °C 34127.5 hPa SSE 3.1 km/h 1.3 km/h 76 % 0 mm
13:11 -15.6 °C -17.7 °C 34093.6 hPa SW 6 km/h 5.5 km/h 76 % 0 mm
13:16 -15.6 °C -17.7 °C 34127.5 hPa WSW 11.9 km/h 5.1 km/h 76 % 0 mm
13:21 -15 °C -17.2 °C 34093.6 hPa NW 11.9 km/h 5.1 km/h 76 % 0 mm
13:26 -15 °C -17.3 °C 34093.6 hPa SW 6.4 km/h 5 km/h 75 % 0 mm
13:31 -14.4 °C -16.9 °C 34093.6 hPa NW 6 km/h 3.7 km/h 73 % 0 mm
13:36 -14.4 °C -17.1 °C 34093.6 hPa WSW 6 km/h 2.6 km/h 72 % 0 mm
13:41 -14.4 °C -17.2 °C 34093.6 hPa NW 6.4 km/h 2.1 km/h 71 % 0 mm
13:46 -14.4 °C -17.1 °C 34093.6 hPa SSE 9 km/h 3.4 km/h 72 % 0 mm
13:51 -14.4 °C -17.1 °C 34093.6 hPa WNW 9 km/h 6.8 km/h 72 % 0 mm
13:56 -14.4 °C -17.1 °C 34093.6 hPa North 6 km/h 3.7 km/h 72 % 0 mm
14:01 -14.4 °C -17.1 °C 34059.8 hPa NE 6 km/h 2.6 km/h 72 % 0 mm
14:06 -14.4 °C -17.1 °C 34093.6 hPa NNW 9 km/h 3.4 km/h 72 % 0 mm
14:11 -14.4 °C -17.2 °C 34093.6 hPa WSW 6 km/h 1 km/h 71 % 0 mm
14:16 -14.4 °C -17.1 °C 34093.6 hPa WSW 15 km/h 7.2 km/h 72 % 0 mm
14:21 -14.4 °C -16.9 °C 34093.6 hPa SW 11.9 km/h 6.9 km/h 73 % 0 mm
14:26 -14.4 °C -17.1 °C 34059.8 hPa NNW 9 km/h 3.1 km/h 72 % 0 mm
14:31 -14.4 °C -17.1 °C 34059.8 hPa SW 9 km/h 7.7 km/h 72 % 0 mm
14:36 -14.4 °C -17.1 °C 34059.8 hPa ENE 3.1 km/h   72 % 0 mm
14:41 -14.4 °C -17.1 °C 34059.8 hPa NW 6 km/h 2.1 km/h 72 % 0 mm
14:46 -14.4 °C -17.1 °C 34059.8 hPa SE 3.1 km/h   72 % 0 mm
14:51 -14.4 °C -17.1 °C 34059.8 hPa SW 3.1 km/h 0.3 km/h 72 % 0 mm
14:56 -14.4 °C -17.1 °C 34059.8 hPa WSW 6 km/h 0.5 km/h 72 % 0 mm
15:01 -14.4 °C -17.1 °C 34025.9 hPa SSE 3.1 km/h 1.6 km/h 72 % 0 mm
15:06 -14.4 °C -16.9 °C 34025.9 hPa WSW 12.9 km/h 9.3 km/h 73 % 0 mm
15:11 -14.4 °C -16.9 °C 33992.1 hPa NNW 6 km/h 1.8 km/h 73 % 0 mm
15:16 -14.4 °C -16.9 °C 33992.1 hPa SW 3.1 km/h 0.3 km/h 73 % 0 mm
15:21 -14.4 °C -16.9 °C 33992.1 hPa SW 3.1 km/h   73 % 0 mm
15:26 -14.4 °C -16.8 °C 33992.1 hPa West 3.1 km/h   74 % 0 mm
15:31 -14.4 °C -16.8 °C 33992.1 hPa WSW 3.1 km/h   74 % 0 mm
15:36 -14.4 °C -16.7 °C 33992.1 hPa Calm     75 % 0 mm
15:41 -14.4 °C -16.6 °C 33992.1 hPa Calm     76 % 0 mm
15:46 -14.4 °C -16.3 °C 33992.1 hPa Calm     79 % 0 mm
15:51 -14.4 °C -16.3 °C 33992.1 hPa NNW 9 km/h 4.7 km/h 79 % 12.7 mm
15:56 -14.4 °C -16.2 °C 33992.1 hPa SW 3.1 km/h   80 % 12.7 mm
16:01 -14.4 °C -16.3 °C 33992.1 hPa NE 3.1 km/h 0.5 km/h 79 % 12.7 mm
16:06 -14.4 °C -16.3 °C 33992.1 hPa SE 6 km/h 0.3 km/h 79 % 12.7 mm
16:11 -14.4 °C -16.3 °C 33992.1 hPa SW 6 km/h 3.4 km/h 79 % 12.7 mm
16:16 -14.4 °C -16.2 °C 33992.1 hPa SE 6.4 km/h 2.9 km/h 80 % 12.7 mm
16:21 -14.4 °C -16.2 °C 33992.1 hPa SE 6 km/h 0.5 km/h 80 % 12.7 mm
16:26 -14.4 °C -16.1 °C 33992.1 hPa NW 8 km/h 5.1 km/h 81 % 12.7 mm
16:31 -14.4 °C -16.1 °C 33992.1 hPa NW 15 km/h 8 km/h 81 % 12.7 mm
16:36 -14.4 °C -16.1 °C 33992.1 hPa NW 11.9 km/h 8.2 km/h 81 % 12.7 mm
16:41 -14.4 °C -16 °C 33992.1 hPa NE 17.9 km/h 8.9 km/h 82 % 12.7 mm
16:46 -14.4 °C -16 °C 33992.1 hPa NW 17.9 km/h 12.2 km/h 82 % 12.7 mm
16:51 -14.4 °C -16 °C 33992.1 hPa NW 26.9 km/h 12.2 km/h 82 % 0 mm
16:56 -13.9 °C -15.5 °C 33992.1 hPa NW 29.8 km/h 14.8 km/h 82 % 0 mm
17:01 -13.9 °C -15.6 °C 33992.1 hPa West 20.9 km/h 12.4 km/h 81 % 0 mm
17:06 -13.9 °C -15.5 °C 33992.1 hPa NW 17.9 km/h 12.2 km/h 82 % 0 mm
17:11 -13.9 °C -15.5 °C 33992.1 hPa NNW 29.8 km/h 16.3 km/h 82 % 0 mm
17:16 -13.9 °C -15.6 °C 33992.1 hPa WSW 26.9 km/h 18.3 km/h 81 % 0 mm
17:21 -13.9 °C -15.6 °C 33992.1 hPa SW 35.7 km/h 20.3 km/h 81 % 0 mm
17:26 -13.9 °C -15.6 °C 33992.1 hPa WSW 29 km/h 14.8 km/h 81 % 0 mm
17:31 -13.9 °C -15.6 °C 33992.1 hPa NNW 26.9 km/h 18.2 km/h 81 % 0 mm
17:36 -13.9 °C -15.6 °C 33992.1 hPa WSW 32.8 km/h 14.8 km/h 81 % 0 mm
17:41 -13.9 °C -15.6 °C 33992.1 hPa WSW 32.8 km/h 11.4 km/h 81 % 0 mm
17:46 -13.9 °C -15.6 °C 33992.1 hPa West 38.8 km/h 15.3 km/h 81 % 0 mm
17:51 -13.9 °C -15.6 °C 33992.1 hPa NW 26.9 km/h 15.3 km/h 81 % 0 mm
17:56 -13.9 °C -15.6 °C 33992.1 hPa West 29 km/h 17.9 km/h 81 % 0 mm
18:01 -13.9 °C -15.6 °C 33992.1 hPa NNE 26.9 km/h 13.2 km/h 81 % 0 mm
18:06 -13.9 °C -15.7 °C 33992.1 hPa NW 26.9 km/h 15.8 km/h 80 % 0 mm
18:11 -13.9 °C -15.7 °C 33992.1 hPa NW 26.9 km/h 11.4 km/h 80 % 0 mm
18:16 -13.9 °C -15.7 °C 33992.1 hPa NW 17.9 km/h 11.6 km/h 80 % 0 mm
18:21 -13.9 °C -15.7 °C 33992.1 hPa NW 26.9 km/h 12.7 km/h 80 % 0 mm
18:26 -13.9 °C -15.7 °C 33992.1 hPa NW 20.9 km/h 14 km/h 80 % 0 mm
18:31 -13.9 °C -15.7 °C 33992.1 hPa WSW 23.8 km/h 12.2 km/h 80 % 0 mm
18:36 -13.9 °C -15.7 °C 33992.1 hPa West 26.9 km/h 12.9 km/h 80 % 0 mm
18:41 -13.9 °C -15.7 °C 33992.1 hPa NW 23.8 km/h 11.9 km/h 80 % 0 mm
18:46 -13.9 °C -15.7 °C 33992.1 hPa NNW 23.8 km/h 13.2 km/h 80 % 0 mm
18:51 -13.9 °C -15.7 °C 33992.1 hPa NW 29.8 km/h 10.1 km/h 80 % 0 mm
18:56 -13.9 °C -15.7 °C 33992.1 hPa WNW 23.8 km/h 8.9 km/h 80 % 0 mm
19:01 -13.9 °C -15.7 °C 33992.1 hPa WSW 17.9 km/h 8.9 km/h 80 % 0 mm
19:06 -14.4 °C -16.1 °C 33992.1 hPa SW 11.9 km/h 6.9 km/h 81 % 0 mm
19:11 -14.4 °C -16.1 °C 33992.1 hPa SW 11.9 km/h 8.2 km/h 81 % 0 mm
19:16 -14.4 °C -16.1 °C 33992.1 hPa NNW 11.9 km/h 7.7 km/h 81 % 0 mm
19:21 -14.4 °C -16.1 °C 33992.1 hPa NW 11.9 km/h 8.5 km/h 81 % 0 mm
19:26 -14.4 °C -16 °C 33958.2 hPa West 17.9 km/h 5.1 km/h 82 % 0 mm
19:31 -14.4 °C -16 °C 33924.3 hPa SW 9 km/h 4.7 km/h 82 % 0 mm
19:36 -14.4 °C -16.1 °C 33924.3 hPa WSW 9 km/h 6.8 km/h 81 % 0 mm
19:41 -14.4 °C -16 °C 33924.3 hPa WSW 9 km/h 2.9 km/h 82 % 0 mm
19:46 -14.4 °C -16 °C 33924.3 hPa SW 3.1 km/h 1 km/h 82 % 0 mm
19:51 -14.4 °C -16 °C 33924.3 hPa NW 32.2 km/h 8.2 km/h 82 % 0 mm
19:56 -14.4 °C -16.1 °C 33958.2 hPa WSW 9.7 km/h 5.1 km/h 81 % 0 mm
20:01 -14.4 °C -16.1 °C 33958.2 hPa North 11.9 km/h 7.7 km/h 81 % 0 mm
20:06 -14.4 °C -16.1 °C 33958.2 hPa North 9 km/h 4.3 km/h 81 % 0 mm
20:11 -14.4 °C -16.1 °C 33958.2 hPa WNW 9 km/h 6.3 km/h 81 % 0 mm
20:16 -14.4 °C -16.1 °C 33958.2 hPa NNW 15 km/h 8 km/h 81 % 0 mm
20:21 -14.4 °C -16.1 °C 33958.2 hPa WNW 19.5 km/h 12.2 km/h 81 % 0 mm
20:26 -14.4 °C -16.1 °C 33958.2 hPa NNW 15 km/h 9.8 km/h 81 % 0 mm
20:31 -14.4 °C -16.2 °C 33958.2 hPa NW 15 km/h 10.1 km/h 80 % 0 mm
20:36 -14.4 °C -16.2 °C 33958.2 hPa NW 15 km/h 11.4 km/h 80 % 0 mm
20:41 -14.4 °C -16.3 °C 33958.2 hPa NW 15 km/h 10.3 km/h 79 % 0 mm
Alcoletge
Elogios de Weather Underground - 1.5 mb

Guión original por  Jim McMurry - jmcmurry@mwt.net Adaptado para la plantilla por  Wim van der Kuil - Leuven-Template.eu

Usted encontrará nuestra información del tiempo también en:

Weather Underground

Iberian Peninsula Weather Network